createdAt,value
2023-03-25T00:00:17.397Z,56.74
2023-03-25T00:02:47.602Z,54.40
2023-03-25T00:05:16.491Z,57.09
2023-03-25T00:07:44.654Z,51.63
2023-03-25T00:10:13.618Z,55.44
2023-03-25T00:12:42.702Z,53.42
2023-03-25T00:15:11.905Z,51.31
2023-03-25T00:17:39.366Z,53.61
2023-03-25T00:20:11.789Z,52.51
2023-03-25T00:22:44.476Z,53.60
2023-03-25T00:25:19.213Z,51.57
2023-03-25T00:27:48.756Z,53.92
2023-03-25T00:30:16.956Z,51.83
2023-03-25T00:32:50.509Z,52.20
2023-03-25T00:35:19.767Z,51.18
2023-03-25T00:38:00.245Z,52.85
2023-03-25T00:40:28.827Z,53.55
2023-03-25T00:42:56.372Z,54.62
2023-03-25T00:45:23.822Z,54.42
2023-03-25T00:47:51.212Z,53.53
2023-03-25T00:50:18.384Z,54.04
2023-03-25T00:52:45.325Z,53.38
2023-03-25T00:55:12.926Z,52.54
2023-03-25T00:57:39.688Z,51.43
2023-03-25T01:00:10.637Z,52.40
2023-03-25T01:02:42.269Z,51.16
2023-03-25T01:05:11.432Z,52.94
2023-03-25T01:07:39.784Z,53.25
2023-03-25T01:10:08.588Z,54.71
2023-03-25T01:12:35.576Z,53.20
2023-03-25T01:15:02.423Z,51.15
2023-03-25T01:17:29.341Z,51.59
2023-03-25T01:19:56.394Z,53.00
2023-03-25T01:22:23.262Z,51.89
2023-03-25T01:24:50.018Z,51.53
2023-03-25T01:27:16.867Z,50.36
2023-03-25T01:29:43.663Z,50.90
2023-03-25T01:32:10.461Z,51.12
2023-03-25T01:34:38.700Z,50.06
2023-03-25T01:37:06.568Z,51.48
2023-03-25T01:39:33.387Z,51.97
2023-03-25T01:42:00.552Z,50.66
2023-03-25T01:44:28.113Z,51.30
2023-03-25T01:46:56.449Z,48.80
2023-03-25T01:49:30.443Z,50.35
2023-03-25T01:52:04.744Z,50.57
2023-03-25T01:54:31.713Z,48.84
2023-03-25T01:56:59.112Z,50.63
2023-03-25T01:59:28.770Z,50.38
2023-03-25T02:01:58.610Z,50.85
2023-03-25T02:04:39.044Z,48.95
2023-03-25T02:07:10.538Z,48.62
2023-03-25T02:09:38.800Z,50.13
2023-03-25T02:12:07.849Z,51.94
2023-03-25T02:14:36.810Z,50.57
2023-03-25T02:17:03.528Z,49.63
2023-03-25T02:20:08.557Z,53.96
2023-03-25T02:22:59.534Z,51.01
2023-03-25T02:25:35.651Z,50.51
2023-03-25T02:28:26.167Z,51.10
2023-03-25T02:31:02.264Z,48.41
2023-03-25T02:33:48.023Z,51.91
2023-03-25T02:36:24.840Z,47.55
2023-03-25T02:38:56.055Z,48.53
2023-03-25T02:41:31.653Z,48.40
2023-03-25T02:44:15.026Z,48.03
2023-03-25T02:46:49.217Z,48.96
2023-03-25T02:49:24.540Z,48.60
2023-03-25T02:52:05.820Z,49.31
2023-03-25T02:54:37.195Z,48.42
2023-03-25T02:57:08.096Z,48.92
2023-03-25T02:59:38.345Z,51.00
2023-03-25T03:02:09.759Z,48.27
2023-03-25T03:04:52.626Z,48.19
2023-03-25T03:07:25.038Z,48.17
2023-03-25T03:10:19.365Z,48.14
2023-03-25T03:12:53.706Z,47.59
2023-03-25T03:15:48.269Z,47.92
2023-03-25T03:18:27.553Z,47.49
2023-03-25T03:21:12.086Z,48.55
2023-03-25T03:24:06.126Z,48.72
2023-03-25T03:26:53.839Z,47.70
2023-03-25T03:29:27.756Z,47.87
2023-03-25T03:32:06.120Z,48.97
2023-03-25T03:34:51.380Z,48.99
2023-03-25T03:37:43.944Z,48.63
2023-03-25T03:40:16.622Z,47.74
2023-03-25T03:42:57.856Z,47.65
2023-03-25T03:45:33.443Z,48.99
2023-03-25T03:48:06.870Z,50.11
2023-03-25T03:50:41.542Z,49.17
2023-03-25T03:53:16.025Z,46.32
2023-03-25T03:55:51.058Z,47.59
2023-03-25T03:58:24.198Z,48.42
2023-03-25T04:00:57.873Z,47.67
2023-03-25T04:03:30.423Z,46.98
2023-03-25T04:06:26.786Z,46.51
2023-03-25T04:09:06.783Z,46.03
2023-03-25T04:11:43.907Z,46.40
2023-03-25T04:14:13.224Z,46.40
2023-03-25T04:16:40.485Z,45.64
2023-03-25T04:19:07.410Z,46.11
2023-03-25T04:21:34.261Z,47.03
2023-03-25T04:24:01.697Z,45.07
2023-03-25T04:26:34.154Z,46.93
2023-03-25T04:29:02.120Z,46.22
2023-03-25T04:31:31.434Z,46.17
2023-03-25T04:33:59.357Z,46.55
2023-03-25T04:36:33.658Z,46.27
2023-03-25T04:39:01.323Z,46.92
2023-03-25T04:41:28.705Z,46.11
2023-03-25T04:43:55.795Z,47.32
2023-03-25T04:46:22.663Z,46.44
2023-03-25T04:48:49.832Z,46.48
2023-03-25T04:51:16.595Z,46.78
2023-03-25T04:53:43.542Z,46.84
2023-03-25T04:56:16.567Z,46.62
2023-03-25T04:58:44.784Z,45.01
2023-03-25T05:01:30.794Z,46.62
2023-03-25T05:04:07.005Z,48.61
2023-03-25T05:06:42.735Z,48.07
2023-03-25T05:09:14.593Z,46.93
2023-03-25T05:11:42.493Z,45.34
2023-03-25T05:14:10.986Z,47.03
2023-03-25T05:16:38.772Z,47.70
2023-03-25T05:19:06.685Z,49.08
2023-03-25T05:21:37.626Z,47.49
2023-03-25T05:24:08.364Z,47.34
2023-03-25T05:26:39.913Z,47.30
2023-03-25T05:29:10.497Z,46.63
2023-03-25T05:31:37.348Z,46.48
2023-03-25T05:34:06.764Z,45.91
2023-03-25T05:36:33.661Z,46.80
2023-03-25T05:39:01.012Z,44.51
2023-03-25T05:41:49.075Z,45.85
2023-03-25T05:44:18.902Z,45.09
2023-03-25T05:46:46.297Z,42.44
2023-03-25T05:49:13.090Z,41.49
2023-03-25T05:51:40.065Z,42.97
2023-03-25T05:54:11.809Z,43.68
2023-03-25T05:56:39.870Z,41.25
2023-03-25T05:59:06.800Z,39.19
2023-03-25T06:01:34.427Z,41.30
2023-03-25T06:04:02.649Z,41.51
2023-03-25T06:06:34.116Z,41.60
2023-03-25T06:09:02.433Z,42.17
2023-03-25T06:11:30.026Z,41.59
2023-03-25T06:13:57.065Z,43.79
2023-03-25T06:16:30.279Z,44.48
2023-03-25T06:19:00.494Z,44.27
2023-03-25T06:21:29.506Z,43.96
2023-03-25T06:23:58.772Z,43.92
2023-03-25T06:26:26.483Z,43.90
2023-03-25T06:28:53.482Z,45.80
2023-03-25T06:31:28.145Z,44.50
2023-03-25T06:33:56.770Z,44.30
2023-03-25T06:36:25.560Z,44.30
2023-03-25T06:38:54.196Z,42.45
2023-03-25T06:41:25.807Z,43.70
2023-03-25T06:44:03.855Z,43.67
2023-03-25T06:46:46.477Z,42.84
2023-03-25T06:49:36.037Z,45.78
2023-03-25T06:52:02.834Z,43.76
2023-03-25T06:54:29.843Z,43.12
2023-03-25T06:56:57.011Z,45.12
2023-03-25T06:59:24.050Z,43.82
2023-03-25T07:01:51.252Z,43.01
2023-03-25T07:04:19.531Z,43.72
2023-03-25T07:06:46.866Z,44.23
2023-03-25T07:09:13.599Z,43.17
2023-03-25T07:11:40.585Z,44.47
2023-03-25T07:14:07.971Z,43.06
2023-03-25T07:16:34.805Z,44.72
2023-03-25T07:19:01.876Z,45.33
2023-03-25T07:21:28.949Z,45.05
2023-03-25T07:23:56.100Z,43.73
2023-03-25T07:26:22.795Z,42.87
2023-03-25T07:28:49.539Z,44.83
2023-03-25T07:31:17.140Z,43.64
2023-03-25T07:33:44.071Z,45.28
2023-03-25T07:36:12.103Z,43.47
2023-03-25T07:38:38.853Z,43.74
2023-03-25T07:41:10.595Z,44.59
2023-03-25T07:43:39.056Z,43.01
2023-03-25T07:46:38.307Z,42.84
2023-03-25T07:49:05.196Z,42.54
2023-03-25T07:51:34.420Z,43.92
2023-03-25T07:54:05.707Z,44.26
2023-03-25T07:56:33.595Z,44.12
2023-03-25T07:59:00.907Z,43.75
2023-03-25T08:01:27.848Z,42.85
2023-03-25T08:03:54.664Z,42.17
2023-03-25T08:06:21.468Z,43.26
2023-03-25T08:08:48.368Z,42.57
2023-03-25T08:11:15.574Z,40.32
2023-03-25T08:13:42.719Z,40.84
2023-03-25T08:16:12.687Z,39.47
2023-03-25T08:18:39.509Z,40.82
2023-03-25T08:21:06.544Z,41.28
2023-03-25T08:23:36.970Z,40.40
2023-03-25T08:26:05.662Z,39.29
2023-03-25T08:28:33.546Z,40.63
2023-03-25T08:31:02.512Z,40.22
2023-03-25T08:33:40.960Z,39.58
2023-03-25T08:36:14.352Z,40.73
2023-03-25T08:38:42.167Z,39.80
2023-03-25T08:41:08.988Z,38.94
2023-03-25T08:43:35.784Z,40.31
2023-03-25T08:46:02.989Z,39.90
2023-03-25T08:48:29.878Z,41.62
2023-03-25T08:50:57.044Z,39.13
2023-03-25T08:53:24.302Z,41.09
2023-03-25T08:55:54.731Z,39.62
2023-03-25T08:58:22.275Z,41.23
2023-03-25T09:00:54.329Z,39.71
2023-03-25T09:03:22.380Z,41.46
2023-03-25T09:05:50.225Z,41.39
2023-03-25T09:08:17.817Z,42.12
2023-03-25T09:10:44.591Z,41.30
2023-03-25T09:13:11.707Z,39.98
2023-03-25T09:15:38.636Z,41.60
2023-03-25T09:18:05.979Z,39.71
2023-03-25T09:20:33.760Z,40.66
2023-03-25T09:23:00.930Z,41.46
2023-03-25T09:25:28.418Z,39.88
2023-03-25T09:27:55.275Z,40.85
2023-03-25T09:30:22.162Z,37.31
2023-03-25T09:32:49.157Z,39.34
2023-03-25T09:35:16.302Z,37.20
2023-03-25T09:37:43.790Z,38.47
2023-03-25T09:40:16.469Z,35.24
2023-03-25T09:43:08.211Z,37.31
2023-03-25T09:45:43.748Z,32.84
2023-03-25T09:48:26.157Z,32.88
2023-03-25T09:50:53.721Z,33.13
2023-03-25T09:53:33.816Z,32.84
2023-03-25T09:56:02.016Z,37.18
2023-03-25T09:58:35.527Z,33.99
2023-03-25T10:01:26.991Z,36.46
2023-03-25T10:04:09.338Z,35.89
2023-03-25T10:07:20.998Z,35.50
2023-03-25T10:09:52.272Z,34.70
2023-03-25T10:12:19.369Z,36.06
2023-03-25T10:15:20.723Z,35.35
2023-03-25T10:18:02.620Z,33.97
2023-03-25T10:20:41.533Z,33.11
2023-03-25T10:23:18.008Z,35.29
2023-03-25T10:25:49.302Z,32.79
2023-03-25T10:28:22.445Z,31.37
2023-03-25T10:30:53.763Z,31.18
2023-03-25T10:33:35.196Z,34.37
2023-03-25T10:36:04.335Z,35.50
2023-03-25T10:38:34.631Z,35.03
2023-03-25T10:41:11.925Z,35.96
2023-03-25T10:43:41.859Z,35.75
2023-03-25T10:46:20.815Z,35.13
2023-03-25T10:48:48.988Z,35.37
2023-03-25T10:51:51.449Z,34.34
2023-03-25T10:54:19.161Z,32.81
2023-03-25T10:56:51.040Z,34.48
2023-03-25T10:59:32.863Z,33.01
2023-03-25T11:02:01.293Z,34.06
2023-03-25T11:04:36.899Z,31.67
2023-03-25T11:07:13.643Z,32.38
2023-03-25T11:09:40.868Z,33.16
2023-03-25T11:12:07.778Z,31.66
2023-03-25T11:14:40.250Z,33.14
2023-03-25T11:17:21.751Z,32.49
2023-03-25T11:20:02.488Z,32.62
2023-03-25T11:22:35.130Z,33.80
2023-03-25T11:25:07.061Z,28.83
2023-03-25T11:27:45.750Z,29.86
2023-03-25T11:30:19.481Z,31.52
2023-03-25T11:33:07.009Z,29.89
2023-03-25T11:35:42.570Z,31.60
2023-03-25T11:38:37.976Z,32.95
2023-03-25T11:41:07.319Z,32.92
2023-03-25T11:43:39.132Z,31.86
2023-03-25T11:46:15.613Z,34.04
2023-03-25T11:48:44.943Z,30.50
2023-03-25T11:51:20.625Z,33.99
2023-03-25T11:53:54.069Z,33.08
2023-03-25T11:56:25.369Z,33.68
2023-03-25T11:58:52.339Z,31.80
2023-03-25T12:01:29.847Z,31.60
2023-03-25T12:04:26.707Z,32.75
2023-03-25T12:06:54.616Z,33.74
2023-03-25T12:09:21.564Z,32.72
2023-03-25T12:11:57.396Z,34.33
2023-03-25T12:14:50.218Z,33.34
2023-03-25T12:17:27.907Z,33.09
2023-03-25T12:20:01.414Z,33.38
2023-03-25T12:22:46.890Z,31.92
2023-03-25T12:25:49.250Z,29.35
2023-03-25T12:28:44.787Z,30.81
2023-03-25T12:31:29.453Z,30.75
2023-03-25T12:34:24.507Z,33.07
2023-03-25T12:37:17.441Z,33.64
2023-03-25T12:40:06.205Z,34.29
2023-03-25T12:42:54.712Z,33.20
2023-03-25T12:45:27.245Z,33.81
2023-03-25T12:48:05.496Z,35.78
2023-03-25T12:50:37.606Z,34.81
2023-03-25T12:53:07.719Z,34.53
2023-03-25T12:56:03.491Z,34.64
2023-03-25T12:59:02.446Z,35.61
2023-03-25T13:01:53.986Z,36.25
2023-03-25T13:04:23.529Z,37.66
2023-03-25T13:06:53.864Z,38.02
2023-03-25T13:09:36.301Z,38.85
2023-03-25T13:12:17.918Z,40.29
2023-03-25T13:15:17.884Z,41.64
2023-03-25T13:17:57.868Z,45.89
2023-03-25T13:20:29.647Z,46.37
2023-03-25T13:23:02.205Z,51.52
2023-03-25T13:25:42.960Z,47.82
2023-03-25T13:28:16.250Z,50.11
2023-03-25T13:30:46.007Z,48.14
2023-03-25T13:33:37.073Z,45.11
2023-03-25T13:36:14.395Z,46.06
2023-03-25T13:38:49.992Z,47.36
2023-03-25T13:41:41.443Z,47.43
2023-03-25T13:44:24.604Z,44.93
2023-03-25T13:46:58.863Z,40.33
2023-03-25T13:49:51.990Z,41.91
2023-03-25T13:52:19.798Z,43.50
2023-03-25T13:54:56.468Z,39.82
2023-03-25T13:57:30.216Z,42.40
2023-03-25T14:00:15.242Z,37.44
2023-03-25T14:03:06.507Z,41.09
2023-03-25T14:05:33.541Z,39.28
2023-03-25T14:08:09.694Z,40.21
2023-03-25T14:11:03.512Z,39.61
2023-03-25T14:13:36.588Z,42.19
2023-03-25T14:16:08.661Z,42.45
2023-03-25T14:18:51.093Z,40.60
2023-03-25T14:21:22.390Z,43.70
2023-03-25T14:24:00.348Z,43.13
2023-03-25T14:26:29.276Z,41.73
2023-03-25T14:28:58.131Z,39.82
2023-03-25T14:31:29.374Z,36.98
2023-03-25T14:34:05.502Z,38.69
2023-03-25T14:36:38.763Z,39.81
2023-03-25T14:39:28.588Z,38.71
2023-03-25T14:42:40.902Z,40.49
2023-03-25T14:45:32.451Z,37.85
2023-03-25T14:48:00.319Z,38.27
2023-03-25T14:50:30.103Z,37.18
2023-03-25T14:53:12.727Z,37.88
2023-03-25T14:55:46.580Z,36.54
2023-03-25T14:58:25.854Z,37.47
2023-03-25T15:01:11.376Z,37.17
2023-03-25T15:03:43.947Z,36.19
2023-03-25T15:06:18.880Z,34.50
2023-03-25T15:08:57.754Z,34.88
2023-03-25T15:11:52.256Z,36.19
2023-03-25T15:14:24.763Z,36.15
2023-03-25T15:16:59.529Z,36.46
2023-03-25T15:19:27.982Z,35.79
2023-03-25T15:21:57.483Z,37.86
2023-03-25T15:24:36.133Z,32.18
2023-03-25T15:27:15.000Z,36.54
2023-03-25T15:30:02.952Z,35.66
2023-03-25T15:32:55.798Z,35.80
2023-03-25T15:35:31.750Z,36.73
2023-03-25T15:38:46.696Z,36.38
2023-03-25T15:41:27.888Z,39.26
2023-03-25T15:44:32.065Z,39.50
2023-03-25T15:47:13.472Z,36.34
2023-03-25T15:49:58.645Z,36.89
2023-03-25T15:52:48.853Z,37.72
2023-03-25T15:55:22.653Z,36.54
2023-03-25T15:57:54.552Z,38.25
2023-03-25T16:00:45.108Z,37.51
2023-03-25T16:03:15.751Z,38.84
2023-03-25T16:06:04.963Z,37.71
2023-03-25T16:08:37.547Z,38.31
2023-03-25T16:11:19.898Z,38.53
2023-03-25T16:14:08.747Z,38.20
2023-03-25T16:16:39.212Z,38.57
2023-03-25T16:19:11.960Z,36.95
2023-03-25T16:21:38.882Z,36.92
2023-03-25T16:24:09.602Z,35.33
2023-03-25T16:26:40.256Z,35.60
2023-03-25T16:29:22.998Z,36.69
2023-03-25T16:31:56.452Z,37.17
2023-03-25T16:34:24.067Z,38.21
2023-03-25T16:36:52.999Z,37.01
2023-03-25T16:39:20.399Z,38.31
2023-03-25T16:41:51.044Z,37.00
2023-03-25T16:44:22.235Z,36.84
2023-03-25T16:46:52.168Z,38.33
2023-03-25T16:49:39.125Z,37.27
2023-03-25T16:52:19.673Z,37.02
2023-03-25T16:54:53.214Z,37.50
2023-03-25T16:57:24.653Z,37.38
2023-03-25T16:59:54.564Z,37.91
2023-03-25T17:02:26.372Z,36.60
2023-03-25T17:04:58.216Z,37.47
2023-03-25T17:07:28.678Z,36.08
2023-03-25T17:09:59.085Z,35.44
2023-03-25T17:12:29.020Z,37.67
2023-03-25T17:15:04.397Z,37.64
2023-03-25T17:17:51.695Z,38.66
2023-03-25T17:20:27.488Z,37.56
2023-03-25T17:23:09.531Z,35.84
2023-03-25T17:25:59.822Z,36.33
2023-03-25T17:28:39.981Z,36.67
2023-03-25T17:31:25.311Z,36.86
2023-03-25T17:33:54.082Z,38.34
2023-03-25T17:36:21.767Z,37.65
2023-03-25T17:38:54.094Z,38.93
2023-03-25T17:41:22.689Z,36.74
2023-03-25T17:43:55.875Z,38.04
2023-03-25T17:46:28.938Z,36.86
2023-03-25T17:48:57.860Z,39.20
2023-03-25T17:51:27.516Z,38.67
2023-03-25T17:53:55.212Z,39.33
2023-03-25T17:56:25.528Z,39.47
2023-03-25T17:59:04.462Z,38.45
2023-03-25T18:01:33.097Z,41.19
2023-03-25T18:03:59.837Z,38.66
2023-03-25T18:06:27.249Z,40.30
2023-03-25T18:08:55.264Z,40.06
2023-03-25T18:11:22.939Z,39.55
2023-03-25T18:13:49.753Z,39.75
2023-03-25T18:16:19.095Z,40.33
2023-03-25T18:18:46.128Z,39.62
2023-03-25T18:21:14.779Z,42.03
2023-03-25T18:23:47.189Z,39.99
2023-03-25T18:26:17.641Z,41.12
2023-03-25T18:28:46.254Z,39.60
2023-03-25T18:31:17.397Z,41.73
2023-03-25T18:33:46.876Z,39.96
2023-03-25T18:36:14.732Z,40.67
2023-03-25T18:38:41.917Z,38.76
2023-03-25T18:41:11.823Z,41.42
2023-03-25T18:43:40.563Z,41.65
2023-03-25T18:46:10.612Z,42.67
2023-03-25T18:48:37.609Z,41.83
2023-03-25T18:51:05.251Z,42.30
2023-03-25T18:53:32.134Z,41.36
2023-03-25T18:56:01.086Z,42.52
2023-03-25T18:58:34.025Z,42.17
2023-03-25T19:01:02.543Z,42.58
2023-03-25T19:03:39.338Z,41.97
2023-03-25T19:06:09.873Z,42.23
2023-03-25T19:08:37.080Z,43.24
2023-03-25T19:11:19.206Z,41.44
2023-03-25T19:13:48.417Z,42.22
2023-03-25T19:16:15.678Z,42.42
2023-03-25T19:18:42.548Z,43.16
2023-03-25T19:21:14.046Z,44.00
2023-03-25T19:23:42.122Z,44.25
2023-03-25T19:26:09.941Z,44.38
2023-03-25T19:28:36.728Z,45.54
2023-03-25T19:31:04.117Z,44.38
2023-03-25T19:33:31.579Z,43.11
2023-03-25T19:36:01.685Z,43.56
2023-03-25T19:38:29.682Z,44.04
2023-03-25T19:41:10.058Z,43.21
2023-03-25T19:43:37.091Z,46.08
2023-03-25T19:46:05.640Z,45.56
2023-03-25T19:48:33.423Z,46.58
2023-03-25T19:51:00.164Z,44.89
2023-03-25T19:53:28.068Z,44.30
2023-03-25T19:55:56.857Z,45.36
2023-03-25T19:58:25.310Z,46.02
2023-03-25T20:00:53.086Z,46.13
2023-03-25T20:03:24.453Z,46.51
2023-03-25T20:05:58.306Z,46.49
2023-03-25T20:08:26.083Z,45.37
2023-03-25T20:10:54.746Z,44.95
2023-03-25T20:13:22.130Z,45.59
2023-03-25T20:15:50.165Z,45.95
2023-03-25T20:18:17.387Z,44.73
2023-03-25T20:20:44.178Z,46.74
2023-03-25T20:23:11.053Z,44.49
2023-03-25T20:25:39.544Z,44.85
2023-03-25T20:28:06.328Z,45.80
2023-03-25T20:30:35.375Z,45.90
2023-03-25T20:33:03.874Z,45.86
2023-03-25T20:35:31.811Z,42.47
2023-03-25T20:37:58.777Z,44.02
2023-03-25T20:40:37.349Z,45.30
2023-03-25T20:43:10.040Z,43.45
2023-03-25T20:45:36.803Z,43.82
2023-03-25T20:48:04.955Z,43.49
2023-03-25T20:50:32.515Z,43.19
2023-03-25T20:52:59.523Z,42.99
2023-03-25T20:55:26.377Z,42.62
2023-03-25T20:57:53.143Z,41.60
2023-03-25T21:00:20.361Z,44.43
2023-03-25T21:02:47.767Z,44.14
2023-03-25T21:05:14.600Z,42.18
2023-03-25T21:07:41.577Z,43.64
2023-03-25T21:10:09.294Z,42.89
2023-03-25T21:12:43.943Z,43.52
2023-03-25T21:15:14.655Z,44.10
2023-03-25T21:17:42.307Z,43.04
2023-03-25T21:20:10.698Z,44.48
2023-03-25T21:22:44.299Z,42.68
2023-03-25T21:25:14.560Z,42.02
2023-03-25T21:27:42.489Z,42.61
2023-03-25T21:30:11.474Z,41.22
2023-03-25T21:32:38.961Z,43.04
2023-03-25T21:35:08.038Z,42.75
2023-03-25T21:37:38.820Z,44.08
2023-03-25T21:40:11.810Z,44.35
2023-03-25T21:42:41.819Z,41.70
2023-03-25T21:45:11.582Z,42.98
2023-03-25T21:47:38.552Z,43.83
2023-03-25T21:50:10.591Z,43.71
2023-03-25T21:52:38.615Z,42.24
2023-03-25T21:55:06.382Z,41.13
2023-03-25T21:57:37.744Z,44.36
2023-03-25T22:00:07.664Z,43.38
2023-03-25T22:02:38.738Z,43.20
2023-03-25T22:05:06.278Z,42.25
2023-03-25T22:07:33.004Z,42.89
2023-03-25T22:09:59.763Z,41.90
2023-03-25T22:12:27.301Z,41.83
2023-03-25T22:14:54.175Z,43.23
2023-03-25T22:17:21.521Z,43.47
2023-03-25T22:19:49.035Z,40.26
2023-03-25T22:22:19.122Z,42.96
2023-03-25T22:24:47.031Z,42.41
2023-03-25T22:27:14.289Z,42.52
2023-03-25T22:29:44.633Z,43.33
2023-03-25T22:32:12.233Z,41.91
2023-03-25T22:34:39.535Z,42.67
2023-03-25T22:37:06.911Z,42.29
2023-03-25T22:39:33.841Z,42.44
2023-03-25T22:42:00.811Z,42.61
2023-03-25T22:44:28.210Z,43.52
2023-03-25T22:46:55.927Z,43.27
2023-03-25T22:49:22.709Z,41.01
2023-03-25T22:51:49.675Z,43.64
2023-03-25T22:54:16.898Z,42.34
2023-03-25T22:56:44.190Z,43.21
2023-03-25T22:59:12.896Z,44.35
2023-03-25T23:01:41.600Z,43.60
2023-03-25T23:04:09.091Z,43.68
2023-03-25T23:06:36.534Z,42.40
2023-03-25T23:09:06.288Z,42.93
2023-03-25T23:11:33.014Z,43.83
2023-03-25T23:14:06.697Z,44.46
2023-03-25T23:16:34.752Z,41.93
2023-03-25T23:19:04.515Z,43.10
2023-03-25T23:21:32.728Z,44.28
2023-03-25T23:24:02.993Z,44.30
2023-03-25T23:26:38.904Z,44.34
2023-03-25T23:29:09.022Z,42.26
2023-03-25T23:31:38.046Z,42.94
2023-03-25T23:34:06.773Z,43.27
2023-03-25T23:36:39.364Z,45.30
2023-03-25T23:39:09.083Z,43.56
2023-03-25T23:41:36.693Z,44.26
2023-03-25T23:44:04.783Z,43.36
2023-03-25T23:46:32.372Z,44.04
2023-03-25T23:49:02.584Z,42.25
2023-03-25T23:51:36.780Z,43.68
2023-03-25T23:54:05.802Z,43.00
2023-03-25T23:56:32.647Z,43.36
2023-03-25T23:59:00.275Z,41.91
